Tioga, Pennsylvania
Current Conditions -  °F | °C
As of 6:15 PM on Wednesday 22 Oct 2014 (Local Time) from KN38 Reporting Station
Drizzle Drizzle  
Wind Chill: 34°   Ceiling: 400
Heat Index: 43°   Visibility: 4mi
Dew Point: 41°   Wind: 21mph
Humidity: 93%   Direction: 360°N
Pressure: 30.09"   Gusts: 26mph
Location:  41.91°N, 77.13°W
Report Text: KN38 222215Z AUTO 36018G23KT 4SM -DZ OVC004 06/05 A3009 RMK AO2
Loading
Personal Weather Stations






























Interactive Weather Map
Tropical Storm Tracking
New forecast layout! Learn more

10-Day Weather Forecast

Advertisements
Track Severe Weather on mobile